עמוד ראשי
METAR-TAF:

METAR-TAF

שדות תעופה :

Yurimaguas, פרו

קו רוחב: 05-54S, קו אורך: 076-05W, גובה: 179מטר

תצפית מזג אוויר נוכחית

הדו"ח נערך לפני 4 שעות ו 39דקות, בשעה 21:00 UTC
רוח 2קשר מכיוון דרום
טמפרטורת 24 צלסיוס
לחות 94%
לחץ 1011 hPa
ראות: 8000מטר
מעט עננים בגובה 1000רגל
עננים בינוניים בגובה 7000רגל

METAR: SPMS 202100Z 19002KT 8000 FEW010 BKN070 24/23 Q1011 RMK RA CESO 2012 PP016

זמן: 20:39 (01:39 UTC)

תחזית

הדו"ח נערך לפני 5 שעות ו 16דקות, בשעה 20:23 UTC
תחזית בתוקף מ 20 ב 20 UTC עד 21 ב 18 UTC
רוח 5קשר מכיוון דרום
ראות: 1000מטר
עננים בינוניים בגובה 1000רגל
עננים בינוניים בגובה 8000רגל
גשם
יעשה מ
20 ב 20 UTC עד 20 ב 22 UTC
ראות 10 קילומטר או יותר
עננים פזורים בגובה 1200רגל
עננים בינוניים בגובה 8000רגל
יעשה מ
21 ב 12 UTC עד 21 ב 15 UTC
ראות: 3000מטר
עננים בינוניים בגובה 800רגל
גשם,

TAF: SPMS 202023Z 2020/2118 18005KT 1000 RA BKN010 BKN080 TX27/2020Z TN24/2111Z BECMG 2020/2022 9999 NSW SCT012 BKN080 BECMG 2112/2115 3000 RA BKN008

תצפיות ותחזיות מזג אוויר לגבי יותר מ- 4,000 שדות תעופה ברחבי העולם. דוחות METAR ו- TAF.

התחנות הזמינות מסומנות בנקודות צהובות ואדומות על גבי המפה.

העבר את העכבר לנקודה הצבעונית על מנת לראות את שם התחנה.

לאחר מכן, לחץ כדי לראות את תוכן ואת תחזיות מזג האוויר.

כדי לשנות את המפה: לחץ על הכפתורים הירוקים עם הפלוס השחור כדי להתקרב; על הכפתור הירוק עם המקף כדי להתרחק; או בחיצים הירוקים למפות סמוכות.


METAR-TAF: